Ana Sayfa
METAR-TAF:

METAR-TAF

Havaalanları :

Ranong, Tayland

Enlem: 09-59N, Boylam: 098-37E, yükseklik: 7 m

Güncel hava durumu gözlemi

Rapor saat 08:00 UTC de 18 dakika önce yapıldı.
Rüzgar batı/kuzeybatıdan 10 kt
Sıcaklık 34°C
Nem 53%
Basınç 1008 hPa
Görüş mesafesi 10 km veya daha fazla
3000 ft yükseklikte az bulutlu

METAR: VTSR 300800Z 29010KT 9999 FEW030 34/23 Q1008 NOSIG

Saat: 15:18 (08:18 UTC)

Tahmin

Rapor saat 05:00 UTC de 3 saat ve 18 dakika önce yapıldı.
Ayın 30'si saat 06 UTC'den ayın 31'si saat 06 UTC'ye kadar geçerli Tahmin
Rüzgar batı/kuzeybatıdan 8 kt
Görüş mesafesi 10 km veya daha fazla
2000 ft yükseklikte az bulutlu
Dönüşüyor
ayın 30'si saat 12 UTC'den ayın 30'si saat 14 UTC'ye kadar
Rüzgar kuzeydan kt

TAF: VTSR 300500Z 3006/3106 30008KT 9999 FEW020 BECMG 3012/3014 00000KT

4.000'den fazla havaalanı için hava durumu gözlemleri ve tahminleri (METAR ve TAF raporları).

Kullanılabilir istasyonlar harita üzerinde sarı ve kırmızı noktalarla gösterilir.

İstasyonun adını görmek için fareyi noktanın üzerinde gezdirin.

Sonrasında hava gözlem ve tahminlerini görmek için tıklayın.

Haritayı değiştirmek için: yaklaştırmak için siyah artı işaretli yeşil düğmeye ve uzaklaştırmak için de eksi işaretli düğmeye hızla tıklayın; bitişik haritalar için yeşil okları kullanın.


METAR-TAF: